Time;durP1;ratioP1;P1;durP2;ratioP2;P2;SDS_P1;SDS_P2;PMS_P1;PMS_P2;Temp;Humidity;BMP_temperature;BMP_pressure;BME280_temperature;BME280_humidity;BME280_pressure;Samples;Min_cycle;Max_cycle;Signal;HPM_P1;HPM_P2
2023/03/31 00:01:40;;;;;;;11.80;7.00;;;;;;;18.23;58.88;98321.99;267199;1266;24185;-74
2023/03/31 00:07:44;;;;;;;13.60;7.70;;;;;;;18.42;58.65;98316.48;266981;1271;22768;-75
2023/03/31 00:13:47;;;;;;;15.90;8.40;;;;;;;18.70;58.21;98320.38;267453;1267;24311;-74
2023/03/31 00:19:48;;;;;;;13.10;8.00;;;;;;;18.36;59.07;98322.05;266974;1262;22635;-74
2023/03/31 00:25:50;;;;;;;14.60;7.60;;;;;;;18.03;60.49;98321.59;267334;1266;24226;-74
2023/03/31 00:31:52;;;;;;;11.40;7.40;;;;;;;17.90;61.03;98320.52;267566;1266;22601;-74
2023/03/31 00:38:00;;;;;;;13.30;7.70;;;;;;;17.88;60.88;98317.02;267280;1269;22524;-75
2023/03/31 00:44:11;;;;;;;13.50;7.90;;;;;;;18.52;59.91;98312.69;267168;1271;26474;-74
2023/03/31 00:50:17;;;;;;;12.70;8.10;;;;;;;17.67;61.34;98315.22;267520;1271;22551;-74
2023/03/31 00:56:19;;;;;;;14.10;7.60;;;;;;;17.95;60.74;98313.70;267207;1272;22571;-75
2023/03/31 01:02:24;;;;;;;12.00;7.10;;;;;;;18.07;60.36;98316.80;267366;1272;24212;-73
2023/03/31 01:08:26;;;;;;;12.60;6.70;;;;;;;17.88;60.64;98324.91;267330;1267;22572;-75
2023/03/31 01:14:29;;;;;;;12.00;7.20;;;;;;;18.14;60.13;98322.03;267048;1270;25463;-74
2023/03/31 01:20:55;;;;;;;11.10;7.20;;;;;;;17.97;60.41;98320.14;267150;1267;22753;-76
2023/03/31 01:27:10;;;;;;;10.70;7.20;;;;;;;18.04;60.31;98323.56;266876;1266;25476;-76
2023/03/31 01:33:24;;;;;;;11.20;7.10;;;;;;;18.07;59.89;98316.23;267143;1273;25633;-76
2023/03/31 01:40:03;;;;;;;11.10;7.10;;;;;;;18.28;59.37;98311.04;267328;1263;24133;-75
2023/03/31 01:46:29;;;;;;;11.70;7.10;;;;;;;18.37;58.97;98310.38;267293;1272;22548;-75
2023/03/31 01:52:35;;;;;;;11.40;6.00;;;;;;;18.70;58.30;98318.08;267123;1274;25530;-76
2023/03/31 01:58:39;;;;;;;10.60;6.20;;;;;;;18.43;58.28;98322.67;267497;1273;23161;-76
2023/03/31 02:04:51;;;;;;;9.30;5.90;;;;;;;18.04;59.03;98323.95;267274;1273;22617;-77
2023/03/31 02:10:54;;;;;;;10.60;6.30;;;;;;;18.17;58.73;98330.27;267876;1273;24192;-73
2023/03/31 02:16:57;;;;;;;7.20;5.20;;;;;;;18.01;58.88;98323.67;267263;1269;22559;-73
2023/03/31 02:22:59;;;;;;;9.30;5.70;;;;;;;17.90;59.00;98315.73;267598;1253;24167;-74
2023/03/31 02:29:01;;;;;;;9.80;5.80;;;;;;;17.95;58.77;98311.48;267531;1271;24087;-74
2023/03/31 02:35:05;;;;;;;10.80;5.40;;;;;;;17.97;58.54;98315.46;268114;1272;24170;-74
2023/03/31 02:41:07;;;;;;;7.30;4.90;;;;;;;18.21;58.01;98314.35;267163;1270;22552;-73
2023/03/31 02:47:10;;;;;;;7.20;4.90;;;;;;;18.16;57.87;98317.87;267217;1267;25287;-73
2023/03/31 02:54:00;;;;;;;6.90;4.00;;;;;;;18.13;57.92;98315.98;267147;1267;22543;-74
2023/03/31 03:00:24;;;;;;;6.50;3.90;;;;;;;18.12;57.75;98317.89;266983;1272;25239;-75
2023/03/31 03:06:36;;;;;;;5.50;3.50;;;;;;;17.94;58.08;98313.98;267176;1273;25527;-74
2023/03/31 03:12:57;;;;;;;4.60;3.30;;;;;;;18.14;58.31;98316.20;267236;1267;25420;-74
2023/03/31 03:19:02;;;;;;;4.70;3.00;;;;;;;17.80;58.25;98314.59;267300;1261;24208;-74
2023/03/31 03:25:09;;;;;;;5.50;3.30;;;;;;;18.08;57.61;98314.31;267821;1267;24307;-75
2023/03/31 03:31:12;;;;;;;4.90;3.00;;;;;;;17.88;57.84;98314.67;267658;1267;22534;-74
2023/03/31 03:37:13;;;;;;;4.30;3.10;;;;;;;17.64;58.44;98314.69;266981;1267;25416;-74
2023/03/31 03:43:15;;;;;;;4.40;2.80;;;;;;;17.70;58.29;98313.93;267207;1269;22541;-74
2023/03/31 03:49:17;;;;;;;5.20;2.90;;;;;;;17.58;58.51;98306.06;267155;1267;22543;-74
2023/03/31 03:55:18;;;;;;;6.00;2.60;;;;;;;17.62;58.33;98296.11;267085;1267;25353;-77
2023/03/31 04:01:20;;;;;;;3.50;2.40;;;;;;;17.67;58.20;98294.52;267773;1270;25469;-72
2023/03/31 04:07:21;;;;;;;5.30;2.40;;;;;;;17.61;58.22;98287.05;266984;1257;24218;-74
2023/03/31 04:13:23;;;;;;;3.80;2.80;;;;;;;17.55;58.20;98278.58;267615;1272;22632;-74
2023/03/31 04:19:26;;;;;;;4.10;2.20;;;;;;;17.34;58.60;98283.33;267246;1273;23973;-72
2023/03/31 04:25:29;;;;;;;3.80;2.00;;;;;;;17.49;58.29;98274.41;267382;1266;24520;-73
2023/03/31 04:31:31;;;;;;;4.80;2.10;;;;;;;17.61;57.98;98266.29;267124;1267;25461;-74
2023/03/31 04:37:33;;;;;;;5.10;2.50;;;;;;;17.89;57.43;98255.66;267068;1267;22526;-74
2023/03/31 04:43:35;;;;;;;3.40;2.10;;;;;;;18.00;57.06;98256.84;267622;1263;22564;-74
2023/03/31 04:49:36;;;;;;;3.20;2.40;;;;;;;18.13;56.79;98253.08;267309;1259;22655;-72
2023/03/31 04:55:38;;;;;;;4.70;2.20;;;;;;;18.28;56.51;98253.63;267126;1267;22583;-73
2023/03/31 05:01:44;;;;;;;5.20;2.50;;;;;;;18.28;56.40;98255.53;267341;1253;22641;-73
2023/03/31 05:07:45;;;;;;;4.00;2.10;;;;;;;18.15;56.74;98257.95;267334;1257;26372;-72
2023/03/31 05:13:47;;;;;;;3.40;1.90;;;;;;;18.34;56.68;98248.23;267416;1260;22603;-72
2023/03/31 05:19:49;;;;;;;6.00;2.50;;;;;;;18.49;56.46;98251.70;267798;1267;24579;-77
2023/03/31 05:25:50;;;;;;;3.70;2.10;;;;;;;18.57;56.34;98248.17;268146;1267;23237;-75
2023/03/31 05:31:52;;;;;;;5.70;2.70;;;;;;;18.65;56.20;98248.16;267508;1266;23348;-75
2023/03/31 05:37:54;;;;;;;5.60;2.90;;;;;;;18.68;56.14;98242.49;267194;1267;25293;-74
2023/03/31 05:43:56;;;;;;;4.30;2.90;;;;;;;18.92;55.64;98235.14;267203;1260;22516;-75
2023/03/31 05:49:58;;;;;;;6.00;3.30;;;;;;;19.46;54.51;98226.27;269171;1270;22538;-74
2023/03/31 05:56:01;;;;;;;6.70;3.10;;;;;;;19.87;53.90;98226.10;268742;1267;22530;-74
2023/03/31 06:02:03;;;;;;;6.00;3.20;;;;;;;19.84;53.68;98221.13;267859;1270;22551;-74
2023/03/31 06:08:06;;;;;;;5.90;3.10;;;;;;;19.30;54.57;98218.00;267852;1267;24244;-74
2023/03/31 06:14:07;;;;;;;6.00;3.70;;;;;;;19.09;54.95;98211.89;267797;1267;23318;-74
2023/03/31 06:27:27;;;;;;;9.50;4.20;;;;;;;19.28;54.66;98212.30;267373;1267;22707;-73
